createdAt,value
2022-10-16T00:01:31.573Z,96329.38
2022-10-16T00:04:02.468Z,96331.44
2022-10-16T00:06:33.007Z,96343.94
2022-10-16T00:09:01.884Z,96336.16
2022-10-16T00:11:34.126Z,96334.69
2022-10-16T00:14:04.351Z,96336.75
2022-10-16T00:16:32.894Z,96342.06
2022-10-16T00:19:01.227Z,96344.94
2022-10-16T00:21:32.334Z,96350.28
2022-10-16T00:24:03.295Z,96356.03
2022-10-16T00:26:33.802Z,96351.09
2022-10-16T00:29:02.502Z,96350.47
2022-10-16T00:31:31.763Z,96357.22
2022-10-16T00:34:02.579Z,96355.78
2022-10-16T00:36:33.147Z,96346.13
2022-10-16T00:39:02.794Z,96348.19
2022-10-16T00:41:32.772Z,96353.06
2022-10-16T00:44:02.731Z,96352.25
2022-10-16T00:46:40.189Z,96356.78
2022-10-16T00:49:11.107Z,96359.03
2022-10-16T00:51:42.907Z,96358.19
2022-10-16T00:54:15.519Z,96359.03
2022-10-16T00:56:45.468Z,96361.69
2022-10-16T00:59:18.095Z,96371.13
2022-10-16T01:01:46.456Z,96375.22
2022-10-16T01:04:15.092Z,96371.50
2022-10-16T01:06:51.327Z,96369.00
2022-10-16T01:09:25.797Z,96362.88
2022-10-16T01:12:03.112Z,96367.38
2022-10-16T01:14:40.455Z,96363.91
2022-10-16T01:17:14.113Z,96363.69
2022-10-16T01:20:04.947Z,96367.00
2022-10-16T01:22:45.658Z,96368.00
2022-10-16T01:25:21.256Z,96366.16
2022-10-16T01:27:51.895Z,96372.34
2022-10-16T01:30:24.899Z,96369.00
2022-10-16T01:32:59.344Z,96362.06
2022-10-16T01:35:31.215Z,96370.25
2022-10-16T01:38:05.133Z,96350.16
2022-10-16T01:40:36.463Z,96360.81
2022-10-16T01:43:10.081Z,96361.00
2022-10-16T01:45:38.952Z,96365.53
2022-10-16T01:48:10.646Z,96360.56
2022-10-16T01:50:41.828Z,96367.94
2022-10-16T01:53:14.879Z,96365.69
2022-10-16T01:55:48.297Z,96371.41
2022-10-16T01:58:18.021Z,96367.31
2022-10-16T02:00:49.023Z,96369.34
2022-10-16T02:03:20.617Z,96375.06
2022-10-16T02:05:53.644Z,96370.75
2022-10-16T02:08:23.338Z,96377.94
2022-10-16T02:10:52.117Z,96389.63
2022-10-16T02:13:25.887Z,96378.53
2022-10-16T02:15:54.241Z,96378.72
2022-10-16T02:18:22.916Z,96382.00
2022-10-16T02:20:57.591Z,96381.38
2022-10-16T02:23:36.108Z,96380.75
2022-10-16T02:26:08.251Z,96375.81
2022-10-16T02:28:42.837Z,96384.03
2022-10-16T02:31:13.948Z,96386.88
2022-10-16T02:33:45.927Z,96375.59
2022-10-16T02:36:14.773Z,96381.13
2022-10-16T02:38:43.889Z,96381.94
2022-10-16T02:41:12.356Z,96387.25
2022-10-16T02:43:42.109Z,96383.59
2022-10-16T02:46:10.539Z,96384.59
2022-10-16T02:48:40.213Z,96390.56
2022-10-16T02:51:08.659Z,96381.56
2022-10-16T02:53:36.988Z,96383.38
2022-10-16T02:56:05.709Z,96384.22
2022-10-16T02:58:34.147Z,96387.69
2022-10-16T03:01:03.928Z,96386.88
2022-10-16T03:03:32.259Z,96392.41
2022-10-16T03:06:00.579Z,96393.41
2022-10-16T03:08:28.927Z,96387.25
2022-10-16T03:10:57.430Z,96397.09
2022-10-16T03:13:25.751Z,96397.94
2022-10-16T03:15:54.075Z,96390.97
2022-10-16T03:18:23.771Z,96395.66
2022-10-16T03:20:52.323Z,96398.13
2022-10-16T03:23:20.720Z,96406.31
2022-10-16T03:25:49.244Z,96394.81
2022-10-16T03:28:17.643Z,96399.34
2022-10-16T03:30:46.036Z,96396.06
2022-10-16T03:33:14.461Z,96397.72
2022-10-16T03:35:44.195Z,96393.38
2022-10-16T03:38:12.471Z,96398.09
2022-10-16T03:40:40.912Z,96398.28
2022-10-16T03:43:09.266Z,96396.03
2022-10-16T03:45:37.645Z,96397.22
2022-10-16T03:48:06.198Z,96391.44
2022-10-16T03:50:34.717Z,96382.81
2022-10-16T03:53:04.546Z,96390.81
2022-10-16T03:55:32.887Z,96389.38
2022-10-16T03:58:01.583Z,96383.63
2022-10-16T04:00:29.947Z,96390.16
2022-10-16T04:02:58.247Z,96395.69
2022-10-16T04:05:26.600Z,96401.38
2022-10-16T04:07:56.023Z,96401.59
2022-10-16T04:10:25.839Z,96400.97
2022-10-16T04:12:55.620Z,96411.41
2022-10-16T04:15:24.567Z,96400.97
2022-10-16T04:17:53.817Z,96400.97
2022-10-16T04:20:22.346Z,96409.97
2022-10-16T04:22:50.781Z,96408.94
2022-10-16T04:25:19.116Z,96415.28
2022-10-16T04:27:48.767Z,96409.31
2022-10-16T04:30:17.149Z,96409.50
2022-10-16T04:32:45.495Z,96412.38
2022-10-16T04:35:13.837Z,96415.25
2022-10-16T04:37:42.261Z,96411.72
2022-10-16T04:40:11.203Z,96425.25
2022-10-16T04:42:39.586Z,96423.78
2022-10-16T04:45:13.370Z,96436.28
2022-10-16T04:47:44.717Z,96427.50
2022-10-16T04:50:13.406Z,96428.13
2022-10-16T04:52:41.769Z,96427.28
2022-10-16T04:55:10.608Z,96429.94
2022-10-16T04:57:38.947Z,96426.47
2022-10-16T05:00:10.111Z,96425.63
2022-10-16T05:02:38.560Z,96429.31
2022-10-16T05:05:07.926Z,96411.88
2022-10-16T05:07:36.293Z,96416.53
2022-10-16T05:10:04.990Z,96422.06
2022-10-16T05:12:33.798Z,96416.91
2022-10-16T05:15:02.109Z,96424.09
2022-10-16T05:17:31.786Z,96417.75
2022-10-16T05:20:00.586Z,96410.78
2022-10-16T05:22:28.906Z,96414.47
2022-10-16T05:24:57.272Z,96415.09
2022-10-16T05:27:25.828Z,96421.25
2022-10-16T05:29:54.393Z,96426.38
2022-10-16T05:32:22.845Z,96417.34
2022-10-16T05:34:53.023Z,96407.56
2022-10-16T05:37:21.319Z,96421.31
2022-10-16T05:39:49.715Z,96420.13
2022-10-16T05:42:18.619Z,96424.88
2022-10-16T05:44:46.995Z,96419.97
2022-10-16T05:47:15.993Z,96417.75
2022-10-16T05:49:44.372Z,96414.91
2022-10-16T05:52:14.077Z,96416.34
2022-10-16T05:54:42.440Z,96405.50
2022-10-16T05:57:10.848Z,96409.19
2022-10-16T05:59:40.055Z,96415.97
2022-10-16T06:02:10.831Z,96410.25
2022-10-16T06:04:39.180Z,96424.00
2022-10-16T06:07:07.773Z,96411.31
2022-10-16T06:09:37.497Z,96430.59
2022-10-16T06:12:06.172Z,96434.91
2022-10-16T06:14:34.556Z,96442.06
2022-10-16T06:17:02.903Z,96444.94
2022-10-16T06:19:32.495Z,96444.94
2022-10-16T06:22:01.789Z,96447.59
2022-10-16T06:24:30.104Z,96437.59
2022-10-16T06:26:59.859Z,96447.84
2022-10-16T06:29:28.179Z,96457.69
2022-10-16T06:31:56.539Z,96451.91
2022-10-16T06:34:25.120Z,96452.94
2022-10-16T06:36:53.520Z,96454.97
2022-10-16T06:39:21.852Z,96458.63
2022-10-16T06:41:50.193Z,96472.78
2022-10-16T06:44:21.106Z,96470.75
2022-10-16T06:46:49.436Z,96459.28
2022-10-16T06:49:22.546Z,96450.28
2022-10-16T06:51:50.989Z,96473.03
2022-10-16T06:54:19.460Z,96471.44
2022-10-16T06:56:47.851Z,96480.50
2022-10-16T06:59:16.182Z,96486.06
2022-10-16T07:01:45.914Z,96491.81
2022-10-16T07:04:14.355Z,96482.81
2022-10-16T07:06:42.731Z,96488.16
2022-10-16T07:09:12.452Z,96488.16
2022-10-16T07:11:42.255Z,96499.63
2022-10-16T07:14:17.864Z,96508.84
2022-10-16T07:16:47.943Z,96508.22
2022-10-16T07:19:19.178Z,96504.94
2022-10-16T07:21:47.636Z,96504.94
2022-10-16T07:24:18.044Z,96495.28
2022-10-16T07:26:47.626Z,96516.84
2022-10-16T07:29:18.361Z,96506.22
2022-10-16T07:31:48.983Z,96519.84
2022-10-16T07:34:19.153Z,96517.88
2022-10-16T07:36:50.000Z,96513.19
2022-10-16T07:39:18.551Z,96521.69
2022-10-16T07:41:46.917Z,96531.16
2022-10-16T07:44:15.413Z,96537.19
2022-10-16T07:46:43.931Z,96529.22
2022-10-16T07:49:13.708Z,96533.38
2022-10-16T07:51:42.163Z,96536.91
2022-10-16T07:54:10.930Z,96538.78
2022-10-16T07:56:42.890Z,96539.66
2022-10-16T07:59:12.750Z,96537.81
2022-10-16T08:01:41.248Z,96541.53
2022-10-16T08:04:10.403Z,96539.72
2022-10-16T08:06:42.071Z,96538.09
2022-10-16T08:09:10.935Z,96540.16
2022-10-16T08:11:39.368Z,96538.72
2022-10-16T08:14:07.906Z,96545.13
2022-10-16T08:16:36.367Z,96541.44
2022-10-16T08:19:05.201Z,96547.44
2022-10-16T08:21:33.612Z,96542.28
2022-10-16T08:24:03.354Z,96549.31
2022-10-16T08:26:31.892Z,96559.19
2022-10-16T08:29:00.328Z,96568.25
2022-10-16T08:31:28.856Z,96572.81
2022-10-16T08:33:57.302Z,96562.91
2022-10-16T08:36:25.709Z,96578.75
2022-10-16T08:38:55.568Z,96572.81
2022-10-16T08:41:39.888Z,96567.88
2022-10-16T08:44:42.695Z,96577.75
2022-10-16T08:47:19.451Z,96573.25
2022-10-16T08:50:02.357Z,96583.91
2022-10-16T08:52:35.016Z,96582.91
2022-10-16T08:55:03.962Z,96594.63
2022-10-16T08:57:33.710Z,96594.84
2022-10-16T09:00:11.396Z,96587.44
2022-10-16T09:02:44.417Z,96581.44
2022-10-16T09:05:39.546Z,96584.94
2022-10-16T09:08:17.175Z,96583.06
2022-10-16T09:10:58.860Z,96595.22
2022-10-16T09:13:31.667Z,96593.38
2022-10-16T09:16:12.023Z,96607.56
2022-10-16T09:18:46.979Z,96592.94
2022-10-16T09:21:20.182Z,96601.53
2022-10-16T09:23:49.515Z,96607.09
2022-10-16T09:26:20.573Z,96610.19
2022-10-16T09:28:50.506Z,96608.53
2022-10-16T09:31:21.630Z,96604.38
2022-10-16T09:33:55.442Z,96606.22
2022-10-16T09:36:26.670Z,96621.84
2022-10-16T09:39:06.242Z,96623.91
2022-10-16T09:41:36.823Z,96616.22
2022-10-16T09:44:18.228Z,96613.13
2022-10-16T09:46:46.612Z,96625.28
2022-10-16T09:49:25.578Z,96618.25
2022-10-16T09:52:04.652Z,96618.22
2022-10-16T09:54:33.176Z,96627.91
2022-10-16T09:57:08.548Z,96622.28
2022-10-16T09:59:48.508Z,96621.81
2022-10-16T10:02:18.832Z,96616.81
2022-10-16T10:04:52.356Z,96622.75
2022-10-16T10:07:26.849Z,96624.34
2022-10-16T10:09:57.188Z,96616.84
2022-10-16T10:12:28.430Z,96617.16
2022-10-16T10:15:00.618Z,96630.53
2022-10-16T10:17:30.482Z,96630.47
2022-10-16T10:20:01.613Z,96615.16
2022-10-16T10:22:41.536Z,96613.06
2022-10-16T10:25:43.383Z,96602.63
2022-10-16T10:28:24.677Z,96601.28
2022-10-16T10:31:02.542Z,96603.69
2022-10-16T10:33:39.440Z,96606.06
2022-10-16T10:36:18.708Z,96608.69
2022-10-16T10:38:52.655Z,96605.94
2022-10-16T10:41:37.600Z,96608.91
2022-10-16T10:44:18.224Z,96607.72
2022-10-16T10:46:52.796Z,96615.28
2022-10-16T10:49:35.314Z,96598.84
2022-10-16T10:52:15.393Z,96609.06
2022-10-16T10:54:53.681Z,96614.34
2022-10-16T10:57:28.030Z,96614.25
2022-10-16T11:00:21.385Z,96617.69
2022-10-16T11:02:59.595Z,96614.06
2022-10-16T11:05:42.857Z,96607.28
2022-10-16T11:08:18.401Z,96595.97
2022-10-16T11:10:55.659Z,96596.47
2022-10-16T11:13:34.540Z,96595.53
2022-10-16T11:16:10.357Z,96593.59
2022-10-16T11:18:50.467Z,96589.28
2022-10-16T11:21:26.076Z,96585.41
2022-10-16T11:24:02.283Z,96576.44
2022-10-16T11:26:35.072Z,96584.50
2022-10-16T11:29:07.000Z,96580.06
2022-10-16T11:31:40.416Z,96574.53
2022-10-16T11:34:19.672Z,96585.75
2022-10-16T11:36:55.475Z,96581.78
2022-10-16T11:39:26.813Z,96576.28
2022-10-16T11:41:57.911Z,96581.06
2022-10-16T11:44:48.561Z,96577.19
2022-10-16T11:47:53.803Z,96578.94
2022-10-16T11:50:25.321Z,96573.97
2022-10-16T11:53:03.657Z,96567.84
2022-10-16T11:55:36.880Z,96568.53
2022-10-16T11:58:10.375Z,96561.13
2022-10-16T12:00:45.640Z,96559.59
2022-10-16T12:03:22.275Z,96569.97
2022-10-16T12:06:04.049Z,96561.19
2022-10-16T12:08:35.532Z,96564.31
2022-10-16T12:11:12.263Z,96569.66
2022-10-16T12:13:43.327Z,96565.97
2022-10-16T12:16:29.530Z,96568.88
2022-10-16T12:19:15.903Z,96562.81
2022-10-16T12:21:46.813Z,96561.50
2022-10-16T12:24:29.935Z,96561.03
2022-10-16T12:26:58.600Z,96558.72
2022-10-16T12:29:35.347Z,96558.84
2022-10-16T12:32:07.399Z,96554.91
2022-10-16T12:34:42.547Z,96562.34
2022-10-16T12:37:17.507Z,96559.44
2022-10-16T12:39:45.936Z,96560.59
2022-10-16T12:42:35.471Z,96553.28
2022-10-16T12:45:15.237Z,96558.22
2022-10-16T12:47:51.729Z,96561.31
2022-10-16T12:50:41.767Z,96550.31
2022-10-16T12:53:22.343Z,96554.38
2022-10-16T12:56:00.459Z,96551.19
2022-10-16T12:58:52.212Z,96557.25
2022-10-16T13:01:30.976Z,96563.28
2022-10-16T13:04:40.019Z,96565.00
2022-10-16T13:07:21.969Z,96565.84
2022-10-16T13:10:03.815Z,96564.31
2022-10-16T13:12:54.303Z,96562.66
2022-10-16T13:15:33.859Z,96563.22
2022-10-16T13:18:12.348Z,96569.19
2022-10-16T13:20:57.713Z,96573.91
2022-10-16T13:23:35.129Z,96566.91
2022-10-16T13:26:19.720Z,96574.56
2022-10-16T13:28:48.341Z,96568.63
2022-10-16T13:31:21.876Z,96568.47
2022-10-16T13:33:55.653Z,96566.63
2022-10-16T13:36:25.677Z,96570.22
2022-10-16T13:39:08.592Z,96574.28
2022-10-16T13:41:38.430Z,96572.38
2022-10-16T13:44:14.365Z,96572.13
2022-10-16T13:46:42.808Z,96576.75
2022-10-16T13:49:16.077Z,96564.56
2022-10-16T13:51:56.636Z,96572.66
2022-10-16T13:54:25.891Z,96573.72
2022-10-16T13:57:03.098Z,96568.00
2022-10-16T13:59:39.903Z,96573.66
2022-10-16T14:02:20.703Z,96572.03
2022-10-16T14:04:50.295Z,96571.78
2022-10-16T14:07:25.560Z,96567.75
2022-10-16T14:09:55.677Z,96565.09
2022-10-16T14:12:28.104Z,96575.66
2022-10-16T14:14:59.478Z,96571.88
2022-10-16T14:17:29.599Z,96575.66
2022-10-16T14:20:02.445Z,96573.50
2022-10-16T14:22:35.677Z,96570.56
2022-10-16T14:25:27.482Z,96569.50
2022-10-16T14:28:05.808Z,96562.75
2022-10-16T14:30:36.136Z,96566.25
2022-10-16T14:33:06.657Z,96567.34
2022-10-16T14:35:37.128Z,96566.53
2022-10-16T14:38:07.939Z,96575.72
2022-10-16T14:40:39.032Z,96564.59
2022-10-16T14:43:08.736Z,96570.53
2022-10-16T14:45:37.946Z,96573.72
2022-10-16T14:48:19.679Z,96567.75
2022-10-16T14:50:48.776Z,96571.50
2022-10-16T14:53:17.344Z,96570.94
2022-10-16T14:55:46.294Z,96569.81
2022-10-16T14:58:19.828Z,96573.06
2022-10-16T15:00:48.378Z,96577.34
2022-10-16T15:03:16.772Z,96575.38
2022-10-16T15:05:45.179Z,96575.06
2022-10-16T15:08:14.086Z,96572.88
2022-10-16T15:10:44.997Z,96576.59
2022-10-16T15:13:17.418Z,96576.75
2022-10-16T15:15:47.648Z,96578.56
2022-10-16T15:18:21.045Z,96582.59
2022-10-16T15:20:51.550Z,96574.97
2022-10-16T15:23:21.988Z,96580.91
2022-10-16T15:25:52.164Z,96581.38
2022-10-16T15:28:23.632Z,96581.88
2022-10-16T15:30:53.792Z,96581.59
2022-10-16T15:33:24.616Z,96577.44
2022-10-16T15:35:54.068Z,96581.38
2022-10-16T15:38:24.267Z,96587.19
2022-10-16T15:40:52.750Z,96594.91
2022-10-16T15:43:22.616Z,96589.34
2022-10-16T15:46:02.046Z,96593.97
2022-10-16T15:48:31.265Z,96597.00
2022-10-16T15:50:59.620Z,96599.78
2022-10-16T15:53:28.075Z,96603.41
2022-10-16T15:55:56.452Z,96602.38
2022-10-16T15:58:26.503Z,96599.75
2022-10-16T16:00:58.105Z,96594.59
2022-10-16T16:03:26.440Z,96600.63
2022-10-16T16:05:55.004Z,96602.28
2022-10-16T16:08:23.433Z,96606.69
2022-10-16T16:11:00.073Z,96604.59
2022-10-16T16:13:29.917Z,96606.25
2022-10-16T16:15:58.480Z,96615.31
2022-10-16T16:18:26.976Z,96618.22
2022-10-16T16:20:55.734Z,96615.19
2022-10-16T16:23:24.241Z,96619.03
2022-10-16T16:26:06.539Z,96619.84
2022-10-16T16:28:36.822Z,96620.91
2022-10-16T16:31:05.861Z,96624.41
2022-10-16T16:33:34.526Z,96614.63
2022-10-16T16:36:05.342Z,96622.81
2022-10-16T16:38:35.398Z,96628.28
2022-10-16T16:41:13.493Z,96644.09
2022-10-16T16:43:43.601Z,96644.97
2022-10-16T16:46:12.668Z,96645.88
2022-10-16T16:48:41.398Z,96652.66
2022-10-16T16:51:16.136Z,96651.91
2022-10-16T16:53:45.022Z,96657.63
2022-10-16T16:56:13.950Z,96655.00
2022-10-16T16:58:43.773Z,96656.72
2022-10-16T17:01:20.986Z,96663.44
2022-10-16T17:03:52.614Z,96663.94
2022-10-16T17:06:23.121Z,96669.81
2022-10-16T17:08:52.157Z,96672.00
2022-10-16T17:11:22.902Z,96679.09
2022-10-16T17:13:56.407Z,96684.06
2022-10-16T17:16:28.122Z,96686.59
2022-10-16T17:18:56.555Z,96698.63
2022-10-16T17:21:26.812Z,96701.50
2022-10-16T17:23:55.186Z,96695.53
2022-10-16T17:26:23.590Z,96705.91
2022-10-16T17:28:56.603Z,96702.47
2022-10-16T17:31:27.767Z,96711.84
2022-10-16T17:33:56.647Z,96712.94
2022-10-16T17:36:25.606Z,96713.59
2022-10-16T17:38:54.041Z,96716.91
2022-10-16T17:41:25.228Z,96716.56
2022-10-16T17:43:54.969Z,96719.91
2022-10-16T17:46:24.914Z,96721.41
2022-10-16T17:48:55.747Z,96724.97
2022-10-16T17:51:27.134Z,96725.44
2022-10-16T17:53:57.495Z,96730.41
2022-10-16T17:56:29.391Z,96739.09
2022-10-16T17:59:01.747Z,96736.03
2022-10-16T18:01:32.919Z,96743.69
2022-10-16T18:04:04.740Z,96750.34
2022-10-16T18:06:33.832Z,96748.31
2022-10-16T18:09:03.945Z,96748.16
2022-10-16T18:11:33.110Z,96754.34
2022-10-16T18:14:03.345Z,96757.63
2022-10-16T18:16:32.563Z,96757.25
2022-10-16T18:19:01.132Z,96759.31
2022-10-16T18:21:30.030Z,96761.38
2022-10-16T18:24:00.099Z,96768.59
2022-10-16T18:26:29.364Z,96763.63
2022-10-16T18:28:59.423Z,96765.72
2022-10-16T18:31:29.948Z,96762.41
2022-10-16T18:33:59.031Z,96777.69
2022-10-16T18:36:30.624Z,96778.31
2022-10-16T18:39:00.154Z,96777.91
2022-10-16T18:41:29.179Z,96783.25
2022-10-16T18:43:57.741Z,96781.81
2022-10-16T18:46:27.622Z,96777.91
2022-10-16T18:49:00.449Z,96786.94
2022-10-16T18:51:30.582Z,96787.38
2022-10-16T18:54:01.019Z,96788.81
2022-10-16T18:56:31.468Z,96788.41
2022-10-16T18:59:01.368Z,96792.53
2022-10-16T19:01:32.549Z,96796.22
2022-10-16T19:04:03.888Z,96801.78
2022-10-16T19:06:36.011Z,96802.81
2022-10-16T19:09:05.396Z,96807.78
2022-10-16T19:11:39.163Z,96807.78
2022-10-16T19:14:07.895Z,96816.00
2022-10-16T19:16:37.368Z,96818.25
2022-10-16T19:19:09.411Z,96815.97
2022-10-16T19:21:39.984Z,96810.00
2022-10-16T19:24:09.054Z,96816.97
2022-10-16T19:26:39.626Z,96821.91
2022-10-16T19:29:10.879Z,96822.72
2022-10-16T19:31:39.996Z,96818.97
2022-10-16T19:34:11.550Z,96826.19
2022-10-16T19:36:40.897Z,96819.81
2022-10-16T19:39:13.469Z,96822.28
2022-10-16T19:41:42.087Z,96822.47
2022-10-16T19:44:13.292Z,96829.50
2022-10-16T19:46:41.847Z,96821.66
2022-10-16T19:49:13.484Z,96821.03
2022-10-16T19:51:41.796Z,96828.25
2022-10-16T19:54:14.643Z,96828.25
2022-10-16T19:56:43.641Z,96830.31
2022-10-16T19:59:16.369Z,96836.88
2022-10-16T20:01:45.329Z,96838.72
2022-10-16T20:04:15.444Z,96840.38
2022-10-16T20:06:43.812Z,96843.88
2022-10-16T20:09:12.125Z,96846.31
2022-10-16T20:11:40.540Z,96845.91
2022-10-16T20:14:09.045Z,96846.09
2022-10-16T20:16:38.573Z,96849.81
2022-10-16T20:19:07.077Z,96850.81
2022-10-16T20:21:36.893Z,96845.69
2022-10-16T20:24:06.585Z,96851.22
2022-10-16T20:26:35.272Z,96848.56
2022-10-16T20:29:05.248Z,96846.06
2022-10-16T20:31:34.997Z,96852.25
2022-10-16T20:34:05.994Z,96853.28
2022-10-16T20:36:37.458Z,96844.63
2022-10-16T20:39:06.822Z,96852.84
2022-10-16T20:41:35.899Z,96847.88
2022-10-16T20:44:04.776Z,96847.06
2022-10-16T20:46:33.308Z,96844.41
2022-10-16T20:49:10.873Z,96857.53
2022-10-16T20:51:49.760Z,96843.53
2022-10-16T20:54:18.475Z,96856.28
2022-10-16T20:56:46.839Z,96858.53
2022-10-16T20:59:15.158Z,96853.78
2022-10-16T21:01:43.652Z,96858.88
2022-10-16T21:04:12.195Z,96849.59
2022-10-16T21:06:40.777Z,96857.63
2022-10-16T21:09:10.760Z,96859.88
2022-10-16T21:11:39.364Z,96861.50
2022-10-16T21:14:09.237Z,96861.88
2022-10-16T21:16:38.239Z,96870.28
2022-10-16T21:19:06.681Z,96871.94
2022-10-16T21:21:37.917Z,96871.31
2022-10-16T21:24:09.899Z,96873.19
2022-10-16T21:26:42.053Z,96878.13
2022-10-16T21:29:10.543Z,96879.56
2022-10-16T21:31:39.021Z,96873.00
2022-10-16T21:34:07.451Z,96879.81
2022-10-16T21:36:38.573Z,96880.44
2022-10-16T21:39:09.074Z,96889.09
2022-10-16T21:41:38.485Z,96885.41
2022-10-16T21:44:10.479Z,96892.38
2022-10-16T21:46:40.925Z,96888.06
2022-10-16T21:49:13.003Z,96894.44
2022-10-16T21:51:43.092Z,96891.75
2022-10-16T21:54:13.789Z,96887.25
2022-10-16T21:56:42.218Z,96888.91
2022-10-16T21:59:13.278Z,96896.47
2022-10-16T22:01:42.584Z,96893.38
2022-10-16T22:04:12.135Z,96894.16
2022-10-16T22:06:41.204Z,96902.78
2022-10-16T22:09:12.713Z,96902.22
2022-10-16T22:11:42.235Z,96897.66
2022-10-16T22:14:14.464Z,96901.94
2022-10-16T22:16:43.285Z,96892.84
2022-10-16T22:19:13.380Z,96895.94
2022-10-16T22:21:43.443Z,96893.25
2022-10-16T22:24:12.007Z,96900.44
2022-10-16T22:26:40.663Z,96899.22
2022-10-16T22:29:09.692Z,96896.38
2022-10-16T22:31:40.405Z,96904.84
2022-10-16T22:34:09.065Z,96907.28
2022-10-16T22:36:37.514Z,96915.13
2022-10-16T22:39:05.991Z,96898.25
2022-10-16T22:41:34.387Z,96911.81
2022-10-16T22:44:02.772Z,96905.84
2022-10-16T22:46:32.157Z,96904.38
2022-10-16T22:49:02.080Z,96903.94
2022-10-16T22:51:30.823Z,96903.69
2022-10-16T22:53:59.491Z,96894.41
2022-10-16T22:56:27.982Z,96895.19
2022-10-16T22:58:56.368Z,96896.78
2022-10-16T23:01:27.955Z,96895.69
2022-10-16T23:03:57.180Z,96896.72
2022-10-16T23:06:26.980Z,96909.03
2022-10-16T23:08:56.514Z,96902.88
2022-10-16T23:11:24.903Z,96903.50
2022-10-16T23:13:53.407Z,96898.19
2022-10-16T23:16:23.872Z,96898.63
2022-10-16T23:18:52.535Z,96898.03
2022-10-16T23:21:27.018Z,96893.50
2022-10-16T23:23:55.722Z,96895.56
2022-10-16T23:26:25.927Z,96892.47
2022-10-16T23:28:56.644Z,96897.13
2022-10-16T23:31:25.523Z,96896.50
2022-10-16T23:33:53.913Z,96895.88
2022-10-16T23:36:22.967Z,96896.09
2022-10-16T23:38:53.663Z,96888.44
2022-10-16T23:41:22.543Z,96888.81
2022-10-16T23:43:51.360Z,96888.41
2022-10-16T23:46:19.865Z,96880.75
2022-10-16T23:48:48.276Z,96885.66
2022-10-16T23:51:16.636Z,96896.50
2022-10-16T23:53:44.997Z,96881.34
2022-10-16T23:56:15.399Z,96886.69
2022-10-16T23:58:43.784Z,96894.25
